sensor_id;sensor_type;location;lat;lon;timestamp;pressure;altitude;pressure_sealevel;temperature;humidity
21290;BME280;10804;48.988;2.408;2022-10-28T00:01:33;100986.28;;;19.97;63.27
21290;BME280;10804;48.988;2.408;2022-10-28T00:04:19;100982.03;;;19.95;63.24
21290;BME280;10804;48.988;2.408;2022-10-28T00:07:05;100982.97;;;19.94;63.37
21290;BME280;10804;48.988;2.408;2022-10-28T00:09:50;100995.41;;;19.92;63.29
21290;BME280;10804;48.988;2.408;2022-10-28T00:12:37;100986.72;;;19.90;63.43
21290;BME280;10804;48.988;2.408;2022-10-28T00:15:23;100985.03;;;19.89;63.35
21290;BME280;10804;48.988;2.408;2022-10-28T00:18:09;100983.31;;;19.88;63.32
21290;BME280;10804;48.988;2.408;2022-10-28T00:20:59;100980.88;;;19.85;63.40
21290;BME280;10804;48.988;2.408;2022-10-28T00:23:45;100981.78;;;19.84;63.33
21290;BME280;10804;48.988;2.408;2022-10-28T00:26:32;100985.38;;;19.83;63.52
21290;BME280;10804;48.988;2.408;2022-10-28T00:29:21;100987.28;;;19.81;63.53
21290;BME280;10804;48.988;2.408;2022-10-28T00:32:07;100996.25;;;19.78;63.48
21290;BME280;10804;48.988;2.408;2022-10-28T00:34:53;100990.97;;;19.78;63.57
21290;BME280;10804;48.988;2.408;2022-10-28T00:37:39;100999.91;;;19.76;63.47
21290;BME280;10804;48.988;2.408;2022-10-28T00:40:25;100998.22;;;19.75;63.58
21290;BME280;10804;48.988;2.408;2022-10-28T00:43:11;101000.97;;;19.73;63.58
21290;BME280;10804;48.988;2.408;2022-10-28T00:45:58;101001.06;;;19.72;63.57
21290;BME280;10804;48.988;2.408;2022-10-28T00:48:46;100994.06;;;19.71;63.61
21290;BME280;10804;48.988;2.408;2022-10-28T00:51:34;100991.59;;;19.68;63.68
21290;BME280;10804;48.988;2.408;2022-10-28T00:54:20;100990.91;;;19.64;63.71
21290;BME280;10804;48.988;2.408;2022-10-28T00:57:11;100987.44;;;19.64;63.59
21290;BME280;10804;48.988;2.408;2022-10-28T01:00:00;100984.94;;;19.61;63.66
21290;BME280;10804;48.988;2.408;2022-10-28T01:02:50;100977.00;;;19.61;63.81
21290;BME280;10804;48.988;2.408;2022-10-28T01:05:40;100968.31;;;19.59;63.81
21290;BME280;10804;48.988;2.408;2022-10-28T01:08:26;100974.53;;;19.58;63.86
21290;BME280;10804;48.988;2.408;2022-10-28T01:11:25;100977.38;;;19.55;63.89
21290;BME280;10804;48.988;2.408;2022-10-28T01:14:21;100978.13;;;19.57;63.86
21290;BME280;10804;48.988;2.408;2022-10-28T01:17:31;100974.75;;;19.55;63.93
21290;BME280;10804;48.988;2.408;2022-10-28T01:24:08;100970.47;;;19.52;64.04
21290;BME280;10804;48.988;2.408;2022-10-28T01:27:14;100978.41;;;19.52;64.05
21290;BME280;10804;48.988;2.408;2022-10-28T01:30:07;100980.19;;;19.52;64.06
21290;BME280;10804;48.988;2.408;2022-10-28T01:33:00;100981.06;;;19.52;64.05
21290;BME280;10804;48.988;2.408;2022-10-28T01:35:52;100979.34;;;19.51;64.00
21290;BME280;10804;48.988;2.408;2022-10-28T01:38:45;100973.19;;;19.51;64.03
21290;BME280;10804;48.988;2.408;2022-10-28T01:41:37;100973.19;;;19.51;64.02
21290;BME280;10804;48.988;2.408;2022-10-28T01:44:32;100965.34;;;19.49;63.91
21290;BME280;10804;48.988;2.408;2022-10-28T01:47:22;100960.91;;;19.50;64.01
21290;BME280;10804;48.988;2.408;2022-10-28T01:50:19;100960.06;;;19.49;63.96
21290;BME280;10804;48.988;2.408;2022-10-28T01:53:08;100971.50;;;19.50;63.92
21290;BME280;10804;48.988;2.408;2022-10-28T01:55:58;100959.22;;;19.49;63.97
21290;BME280;10804;48.988;2.408;2022-10-28T01:58:47;100959.97;;;19.51;63.92
21290;BME280;10804;48.988;2.408;2022-10-28T02:01:35;100962.69;;;19.49;64.00
21290;BME280;10804;48.988;2.408;2022-10-28T02:04:21;100959.22;;;19.49;63.89
21290;BME280;10804;48.988;2.408;2022-10-28T02:07:08;100954.88;;;19.48;63.81
21290;BME280;10804;48.988;2.408;2022-10-28T02:10:02;100955.81;;;19.47;63.83
21290;BME280;10804;48.988;2.408;2022-10-28T02:12:55;100959.28;;;19.47;63.87
21290;BME280;10804;48.988;2.408;2022-10-28T02:15:45;100959.22;;;19.49;63.87
21290;BME280;10804;48.988;2.408;2022-10-28T02:18:39;100955.81;;;19.47;63.87
21290;BME280;10804;48.988;2.408;2022-10-28T02:21:35;100951.34;;;19.47;63.92
21290;BME280;10804;48.988;2.408;2022-10-28T02:24:32;100954.94;;;19.46;63.83
21290;BME280;10804;48.988;2.408;2022-10-28T02:27:31;100947.09;;;19.45;63.83
21290;BME280;10804;48.988;2.408;2022-10-28T02:30:21;100947.09;;;19.45;63.78
21290;BME280;10804;48.988;2.408;2022-10-28T02:33:10;100952.56;;;19.42;63.84
21290;BME280;10804;48.988;2.408;2022-10-28T02:36:00;100948.97;;;19.43;63.58
21290;BME280;10804;48.988;2.408;2022-10-28T02:38:50;100945.41;;;19.44;63.77
21290;BME280;10804;48.988;2.408;2022-10-28T02:41:43;100941.06;;;19.43;63.70
21290;BME280;10804;48.988;2.408;2022-10-28T02:44:34;100942.94;;;19.41;63.74
21290;BME280;10804;48.988;2.408;2022-10-28T02:47:26;100950.09;;;19.39;63.53
21290;BME280;10804;48.988;2.408;2022-10-28T02:50:16;100942.16;;;19.39;63.75
21290;BME280;10804;48.988;2.408;2022-10-28T02:53:07;100944.03;;;19.37;63.77
21290;BME280;10804;48.988;2.408;2022-10-28T02:55:57;100948.50;;;19.36;63.81
21290;BME280;10804;48.988;2.408;2022-10-28T02:58:46;100955.66;;;19.34;63.91
21290;BME280;10804;48.988;2.408;2022-10-28T03:01:32;100946.13;;;19.32;63.71
21290;BME280;10804;48.988;2.408;2022-10-28T03:04:18;100945.19;;;19.33;63.80
21290;BME280;10804;48.988;2.408;2022-10-28T03:07:04;100939.09;;;19.31;63.59
21290;BME280;10804;48.988;2.408;2022-10-28T03:09:50;100934.00;;;19.28;63.77
21290;BME280;10804;48.988;2.408;2022-10-28T03:12:35;100934.00;;;19.28;63.74
21290;BME280;10804;48.988;2.408;2022-10-28T03:15:23;100943.72;;;19.27;63.88
21290;BME280;10804;48.988;2.408;2022-10-28T03:18:08;100936.84;;;19.25;63.87
21290;BME280;10804;48.988;2.408;2022-10-28T03:20:54;100936.91;;;19.23;63.91
21290;BME280;10804;48.988;2.408;2022-10-28T03:23:40;100937.88;;;19.22;63.83
21290;BME280;10804;48.988;2.408;2022-10-28T03:26:26;100937.94;;;19.21;63.92
21290;BME280;10804;48.988;2.408;2022-10-28T03:29:12;100929.22;;;19.19;63.90
21290;BME280;10804;48.988;2.408;2022-10-28T03:31:59;100931.00;;;19.18;63.90
21290;BME280;10804;48.988;2.408;2022-10-28T03:34:45;100924.09;;;19.16;63.96
21290;BME280;10804;48.988;2.408;2022-10-28T03:37:31;100924.09;;;19.16;63.88
21290;BME280;10804;48.988;2.408;2022-10-28T03:40:16;100915.41;;;19.14;63.95
21290;BME280;10804;48.988;2.408;2022-10-28T03:43:02;100911.13;;;19.11;63.99
21290;BME280;10804;48.988;2.408;2022-10-28T03:45:48;100905.97;;;19.10;64.09
21290;BME280;10804;48.988;2.408;2022-10-28T03:48:34;100913.97;;;19.08;64.12
21290;BME280;10804;48.988;2.408;2022-10-28T03:51:20;100907.72;;;19.09;63.97
21290;BME280;10804;48.988;2.408;2022-10-28T03:54:06;100902.72;;;19.05;64.16
21290;BME280;10804;48.988;2.408;2022-10-28T03:56:52;100893.91;;;19.04;64.13
21290;BME280;10804;48.988;2.408;2022-10-28T03:59:38;100907.25;;;19.03;64.16
21290;BME280;10804;48.988;2.408;2022-10-28T04:02:23;100900.25;;;19.02;64.06
21290;BME280;10804;48.988;2.408;2022-10-28T04:05:11;100891.53;;;19.00;64.10
21290;BME280;10804;48.988;2.408;2022-10-28T04:07:56;100896.84;;;19.00;64.19
21290;BME280;10804;48.988;2.408;2022-10-28T04:10:42;100891.72;;;18.97;64.04
21290;BME280;10804;48.988;2.408;2022-10-28T04:13:29;100888.22;;;18.96;64.28
21290;BME280;10804;48.988;2.408;2022-10-28T04:16:14;100891.91;;;18.94;64.19
21290;BME280;10804;48.988;2.408;2022-10-28T04:19:00;100890.19;;;18.93;64.03
21290;BME280;10804;48.988;2.408;2022-10-28T04:21:47;100906.16;;;18.91;64.20
21290;BME280;10804;48.988;2.408;2022-10-28T04:24:33;100905.28;;;18.91;64.31
21290;BME280;10804;48.988;2.408;2022-10-28T04:27:19;100901.88;;;18.89;64.24
21290;BME280;10804;48.988;2.408;2022-10-28T04:30:06;100908.13;;;18.88;64.26
21290;BME280;10804;48.988;2.408;2022-10-28T04:32:52;100906.41;;;18.87;64.33
21290;BME280;10804;48.988;2.408;2022-10-28T04:35:38;100908.28;;;18.85;64.19
21290;BME280;10804;48.988;2.408;2022-10-28T04:38:27;100908.28;;;18.85;64.18
21290;BME280;10804;48.988;2.408;2022-10-28T04:41:13;100911.09;;;18.82;64.35
21290;BME280;10804;48.988;2.408;2022-10-28T04:43:59;100900.53;;;18.82;64.35
21290;BME280;10804;48.988;2.408;2022-10-28T04:46:45;100892.69;;;18.80;64.19
21290;BME280;10804;48.988;2.408;2022-10-28T04:49:31;100895.44;;;18.79;64.23
21290;BME280;10804;48.988;2.408;2022-10-28T04:52:16;100897.22;;;18.78;64.28
21290;BME280;10804;48.988;2.408;2022-10-28T04:55:04;100896.38;;;18.78;64.23
21290;BME280;10804;48.988;2.408;2022-10-28T04:57:53;100896.44;;;18.76;64.32
21290;BME280;10804;48.988;2.408;2022-10-28T05:00:40;100901.81;;;18.75;64.24
21290;BME280;10804;48.988;2.408;2022-10-28T05:03:25;100887.84;;;18.73;64.28
21290;BME280;10804;48.988;2.408;2022-10-28T05:06:11;100890.56;;;18.71;64.45
21290;BME280;10804;48.988;2.408;2022-10-28T05:08:57;100884.53;;;18.69;64.40
21290;BME280;10804;48.988;2.408;2022-10-28T05:11:44;100890.75;;;18.68;64.51
21290;BME280;10804;48.988;2.408;2022-10-28T05:14:30;100896.03;;;18.68;64.41
21290;BME280;10804;48.988;2.408;2022-10-28T05:17:15;100885.53;;;18.67;64.49
21290;BME280;10804;48.988;2.408;2022-10-28T05:20:01;100894.41;;;18.66;64.37
21290;BME280;10804;48.988;2.408;2022-10-28T05:22:48;100895.34;;;18.65;64.44
21290;BME280;10804;48.988;2.408;2022-10-28T05:25:35;100895.34;;;18.65;64.40
21290;BME280;10804;48.988;2.408;2022-10-28T05:28:22;100892.78;;;18.63;64.30
21290;BME280;10804;48.988;2.408;2022-10-28T05:31:08;100892.78;;;18.63;64.46
21290;BME280;10804;48.988;2.408;2022-10-28T05:33:54;100884.94;;;18.62;64.31
21290;BME280;10804;48.988;2.408;2022-10-28T05:36:40;100889.38;;;18.61;64.44
21290;BME280;10804;48.988;2.408;2022-10-28T05:39:26;100891.16;;;18.61;64.36
21290;BME280;10804;48.988;2.408;2022-10-28T05:42:11;100886.91;;;18.58;64.41
21290;BME280;10804;48.988;2.408;2022-10-28T05:44:58;100889.53;;;18.58;64.48
21290;BME280;10804;48.988;2.408;2022-10-28T05:47:45;100886.13;;;18.56;64.46
21290;BME280;10804;48.988;2.408;2022-10-28T05:50:32;100890.41;;;18.59;64.59
21290;BME280;10804;48.988;2.408;2022-10-28T05:53:18;100882.47;;;18.59;64.40
21290;BME280;10804;48.988;2.408;2022-10-28T05:56:04;100884.25;;;18.58;64.43
21290;BME280;10804;48.988;2.408;2022-10-28T05:58:50;100886.91;;;18.58;64.51
21290;BME280;10804;48.988;2.408;2022-10-28T06:01:37;100888.69;;;18.58;64.43
21290;BME280;10804;48.988;2.408;2022-10-28T06:04:23;100897.56;;;18.57;64.43
21290;BME280;10804;48.988;2.408;2022-10-28T06:07:09;100906.25;;;18.59;64.40
21290;BME280;10804;48.988;2.408;2022-10-28T06:09:54;100902.84;;;18.57;64.54
21290;BME280;10804;48.988;2.408;2022-10-28T06:12:40;100902.84;;;18.57;64.45
21290;BME280;10804;48.988;2.408;2022-10-28T06:15:26;100908.13;;;18.57;64.48
21290;BME280;10804;48.988;2.408;2022-10-28T06:18:13;100918.72;;;18.57;64.32
21290;BME280;10804;48.988;2.408;2022-10-28T06:20:59;100910.78;;;18.57;64.43
21290;BME280;10804;48.988;2.408;2022-10-28T06:23:46;100917.84;;;18.56;64.27
21290;BME280;10804;48.988;2.408;2022-10-28T06:26:32;100922.28;;;18.56;64.31
21290;BME280;10804;48.988;2.408;2022-10-28T06:29:18;100920.59;;;18.55;64.40
21290;BME280;10804;48.988;2.408;2022-10-28T06:32:08;100928.50;;;18.55;64.47
21290;BME280;10804;48.988;2.408;2022-10-28T06:34:55;100924.13;;;18.54;64.36
21290;BME280;10804;48.988;2.408;2022-10-28T06:37:41;100930.28;;;18.54;64.36
21290;BME280;10804;48.988;2.408;2022-10-28T06:40:27;100930.34;;;18.53;64.40
21290;BME280;10804;48.988;2.408;2022-10-28T06:43:13;100928.59;;;18.53;64.32
21290;BME280;10804;48.988;2.408;2022-10-28T06:46:00;100937.53;;;18.51;64.30
21290;BME280;10804;48.988;2.408;2022-10-28T06:48:46;100930.34;;;18.53;64.22
21290;BME280;10804;48.988;2.408;2022-10-28T06:51:33;100948.09;;;18.51;64.23
21290;BME280;10804;48.988;2.408;2022-10-28T06:54:19;100956.00;;;18.51;64.23
21290;BME280;10804;48.988;2.408;2022-10-28T06:57:05;100960.44;;;18.50;64.23
21290;BME280;10804;48.988;2.408;2022-10-28T06:59:50;100964.88;;;18.50;64.36
21290;BME280;10804;48.988;2.408;2022-10-28T07:02:36;100971.09;;;18.49;64.38
21290;BME280;10804;48.988;2.408;2022-10-28T07:05:23;100971.19;;;18.47;64.30
21290;BME280;10804;48.988;2.408;2022-10-28T07:08:11;100981.75;;;18.47;64.32
21290;BME280;10804;48.988;2.408;2022-10-28T07:10:58;100980.97;;;18.45;64.44
21290;BME280;10804;48.988;2.408;2022-10-28T07:13:45;100976.47;;;18.47;64.37
21290;BME280;10804;48.988;2.408;2022-10-28T07:16:31;100991.44;;;18.47;64.21
21290;BME280;10804;48.988;2.408;2022-10-28T07:19:17;101004.66;;;18.47;64.33
21290;BME280;10804;48.988;2.408;2022-10-28T07:22:03;101001.16;;;18.46;64.29
21290;BME280;10804;48.988;2.408;2022-10-28T07:24:50;100999.47;;;18.45;64.33
21290;BME280;10804;48.988;2.408;2022-10-28T07:27:35;101005.59;;;18.46;64.32
21290;BME280;10804;48.988;2.408;2022-10-28T07:30:21;101009.09;;;18.46;64.22
21290;BME280;10804;48.988;2.408;2022-10-28T07:33:07;101003.88;;;18.45;64.35
21290;BME280;10804;48.988;2.408;2022-10-28T07:35:53;101011.81;;;18.45;64.45
21290;BME280;10804;48.988;2.408;2022-10-28T07:38:38;101015.31;;;18.45;64.43
21290;BME280;10804;48.988;2.408;2022-10-28T07:41:26;101016.16;;;18.46;64.33
21290;BME280;10804;48.988;2.408;2022-10-28T07:44:12;101028.41;;;18.47;64.41
21290;BME280;10804;48.988;2.408;2022-10-28T07:46:58;101021.44;;;18.46;64.35
21290;BME280;10804;48.988;2.408;2022-10-28T07:49:44;101026.66;;;18.47;64.39
21290;BME280;10804;48.988;2.408;2022-10-28T07:52:30;101038.06;;;18.48;64.29
21290;BME280;10804;48.988;2.408;2022-10-28T07:55:16;101037.03;;;18.50;64.35
21290;BME280;10804;48.988;2.408;2022-10-28T07:58:03;101044.13;;;18.50;64.41
21290;BME280;10804;48.988;2.408;2022-10-28T08:00:49;101043.94;;;18.53;64.36
21290;BME280;10804;48.988;2.408;2022-10-28T08:03:35;101041.22;;;18.54;64.39
21290;BME280;10804;48.988;2.408;2022-10-28T08:06:21;101043.88;;;18.54;64.41
21290;BME280;10804;48.988;2.408;2022-10-28T08:09:07;101029.66;;;18.57;64.41
21290;BME280;10804;48.988;2.408;2022-10-28T08:11:54;101038.34;;;18.59;64.23
21290;BME280;10804;48.988;2.408;2022-10-28T08:14:42;101054.03;;;18.62;64.34
21290;BME280;10804;48.988;2.408;2022-10-28T08:17:27;101061.81;;;18.65;64.29
21290;BME280;10804;48.988;2.408;2022-10-28T08:20:14;101060.88;;;18.66;64.40
21290;BME280;10804;48.988;2.408;2022-10-28T08:23:00;101068.53;;;18.70;64.25
21290;BME280;10804;48.988;2.408;2022-10-28T08:25:49;101068.28;;;18.75;64.20
21290;BME280;10804;48.988;2.408;2022-10-28T08:28:35;101070.88;;;18.76;64.32
21290;BME280;10804;48.988;2.408;2022-10-28T08:31:22;101065.50;;;18.78;64.18
21290;BME280;10804;48.988;2.408;2022-10-28T08:34:08;101072.31;;;18.82;64.24
21290;BME280;10804;48.988;2.408;2022-10-28T08:36:54;101065.16;;;18.84;64.25
21290;BME280;10804;48.988;2.408;2022-10-28T08:39:40;101059.78;;;18.85;64.25
21290;BME280;10804;48.988;2.408;2022-10-28T08:42:34;101059.63;;;18.88;64.10
21290;BME280;10804;48.988;2.408;2022-10-28T08:45:24;101060.31;;;18.92;64.15
21290;BME280;10804;48.988;2.408;2022-10-28T08:48:20;101071.66;;;18.94;64.04
21290;BME280;10804;48.988;2.408;2022-10-28T08:51:15;101068.84;;;18.97;64.12
21290;BME280;10804;48.988;2.408;2022-10-28T08:54:05;101072.25;;;18.99;64.02
21290;BME280;10804;48.988;2.408;2022-10-28T08:56:51;101098.63;;;19.00;63.86
21290;BME280;10804;48.988;2.408;2022-10-28T08:59:40;101086.91;;;19.04;63.95
21290;BME280;10804;48.988;2.408;2022-10-28T09:02:31;101093.84;;;19.07;63.98
21290;BME280;10804;48.988;2.408;2022-10-28T09:05:22;101091.97;;;19.09;64.00
21290;BME280;10804;48.988;2.408;2022-10-28T09:08:18;101094.44;;;19.12;63.85
21290;BME280;10804;48.988;2.408;2022-10-28T09:11:14;101100.50;;;19.14;63.82
21290;BME280;10804;48.988;2.408;2022-10-28T09:14:14;101105.63;;;19.17;63.65
21290;BME280;10804;48.988;2.408;2022-10-28T09:17:11;101105.53;;;19.18;63.51
21290;BME280;10804;48.988;2.408;2022-10-28T09:20:09;101098.44;;;19.20;63.74
21290;BME280;10804;48.988;2.408;2022-10-28T09:23:04;101101.75;;;19.24;63.59
21290;BME280;10804;48.988;2.408;2022-10-28T09:26:06;101098.94;;;19.27;63.38
21290;BME280;10804;48.988;2.408;2022-10-28T09:29:06;101107.63;;;19.29;63.34
21290;BME280;10804;48.988;2.408;2022-10-28T09:32:00;101094.25;;;19.32;63.21
21290;BME280;10804;48.988;2.408;2022-10-28T09:34:48;101109.94;;;19.35;63.33
21290;BME280;10804;48.988;2.408;2022-10-28T09:37:39;101122.97;;;19.38;63.36
21290;BME280;10804;48.988;2.408;2022-10-28T09:40:31;101123.78;;;19.40;63.25
21290;BME280;10804;48.988;2.408;2022-10-28T09:43:22;101128.00;;;19.42;63.26
21290;BME280;10804;48.988;2.408;2022-10-28T09:46:12;101127.88;;;19.45;63.22
21290;BME280;10804;48.988;2.408;2022-10-28T09:49:02;101138.25;;;19.48;63.27
21290;BME280;10804;48.988;2.408;2022-10-28T09:51:54;101133.75;;;19.50;63.21
21290;BME280;10804;48.988;2.408;2022-10-28T09:54:47;101131.75;;;19.54;63.27
21290;BME280;10804;48.988;2.408;2022-10-28T09:57:36;101143.91;;;19.58;63.32
21290;BME280;10804;48.988;2.408;2022-10-28T10:00:23;101141.19;;;19.59;63.37
21290;BME280;10804;48.988;2.408;2022-10-28T10:03:10;101128.72;;;19.61;63.33
21290;BME280;10804;48.988;2.408;2022-10-28T10:05:58;101136.38;;;19.66;63.54
21290;BME280;10804;48.988;2.408;2022-10-28T10:08:47;101138.00;;;19.68;63.42
21290;BME280;10804;48.988;2.408;2022-10-28T10:11:35;101147.56;;;19.71;63.32
21290;BME280;10804;48.988;2.408;2022-10-28T10:14:28;101164.97;;;19.75;63.38
21290;BME280;10804;48.988;2.408;2022-10-28T10:17:19;101173.69;;;19.77;63.30
21290;BME280;10804;48.988;2.408;2022-10-28T10:20:08;101170.00;;;19.79;63.45
21290;BME280;10804;48.988;2.408;2022-10-28T10:22:55;101177.69;;;19.84;63.33
21290;BME280;10804;48.988;2.408;2022-10-28T10:25:42;101177.53;;;19.87;63.41
21290;BME280;10804;48.988;2.408;2022-10-28T10:28:29;101178.28;;;19.89;63.36
21290;BME280;10804;48.988;2.408;2022-10-28T10:31:21;101172.72;;;19.93;63.25
21290;BME280;10804;48.988;2.408;2022-10-28T10:34:21;101179.66;;;19.96;63.20
21290;BME280;10804;48.988;2.408;2022-10-28T10:37:16;101178.53;;;19.99;63.14
21290;BME280;10804;48.988;2.408;2022-10-28T10:40:10;101166.91;;;20.02;63.11
21290;BME280;10804;48.988;2.408;2022-10-28T10:43:20;101150.91;;;20.05;63.04
21290;BME280;10804;48.988;2.408;2022-10-28T10:46:12;101155.16;;;20.08;62.95
21290;BME280;10804;48.988;2.408;2022-10-28T10:49:12;101167.28;;;20.12;62.97
21290;BME280;10804;48.988;2.408;2022-10-28T10:52:00;101156.47;;;20.14;62.97
21290;BME280;10804;48.988;2.408;2022-10-28T10:54:56;101163.31;;;20.18;62.88
21290;BME280;10804;48.988;2.408;2022-10-28T10:57:45;101180.72;;;20.22;62.80
21290;BME280;10804;48.988;2.408;2022-10-28T11:00:34;101185.00;;;20.25;62.90
21290;BME280;10804;48.988;2.408;2022-10-28T11:03:24;101181.25;;;20.29;62.72
21290;BME280;10804;48.988;2.408;2022-10-28T11:06:19;101190.72;;;20.33;62.63
21290;BME280;10804;48.988;2.408;2022-10-28T11:09:17;101187.91;;;20.36;62.66
21290;BME280;10804;48.988;2.408;2022-10-28T11:12:13;101190.28;;;20.40;62.52
21290;BME280;10804;48.988;2.408;2022-10-28T11:15:00;101191.78;;;20.44;62.55
21290;BME280;10804;48.988;2.408;2022-10-28T11:17:54;101192.47;;;20.48;62.41
21290;BME280;10804;48.988;2.408;2022-10-28T11:20:46;101204.59;;;20.52;62.29
21290;BME280;10804;48.988;2.408;2022-10-28T11:23:44;101213.22;;;20.55;62.35
21290;BME280;10804;48.988;2.408;2022-10-28T11:26:39;101215.53;;;20.61;62.36
21290;BME280;10804;48.988;2.408;2022-10-28T11:29:28;101220.63;;;20.64;62.23
21290;BME280;10804;48.988;2.408;2022-10-28T11:32:23;101211.56;;;20.68;62.14
21290;BME280;10804;48.988;2.408;2022-10-28T11:38:43;101216.31;;;20.77;62.04
21290;BME280;10804;48.988;2.408;2022-10-28T11:41:45;101213.41;;;20.82;61.98
21290;BME280;10804;48.988;2.408;2022-10-28T11:44:44;101214.06;;;20.85;61.99
21290;BME280;10804;48.988;2.408;2022-10-28T11:47:49;101210.13;;;20.92;61.73
21290;BME280;10804;48.988;2.408;2022-10-28T11:50:48;101220.47;;;20.97;61.75
21290;BME280;10804;48.988;2.408;2022-10-28T11:53:51;101225.47;;;21.01;61.72
21290;BME280;10804;48.988;2.408;2022-10-28T11:56:42;101224.16;;;21.08;61.59
21290;BME280;10804;48.988;2.408;2022-10-28T11:59:53;101212.41;;;21.12;61.45
21290;BME280;10804;48.988;2.408;2022-10-28T12:03:04;101200.56;;;21.18;61.44
21290;BME280;10804;48.988;2.408;2022-10-28T12:06:02;101203.63;;;21.26;61.47
21290;BME280;10804;48.988;2.408;2022-10-28T12:09:15;101199.72;;;21.31;61.19
21290;BME280;10804;48.988;2.408;2022-10-28T12:12:14;101204.53;;;21.39;61.10
21290;BME280;10804;48.988;2.408;2022-10-28T12:15:13;101210.34;;;21.45;61.20
21290;BME280;10804;48.988;2.408;2022-10-28T12:18:06;101209.09;;;21.51;61.12
21290;BME280;10804;48.988;2.408;2022-10-28T12:20:59;101192.66;;;21.58;60.96
21290;BME280;10804;48.988;2.408;2022-10-28T12:23:47;101192.22;;;21.66;60.93
21290;BME280;10804;48.988;2.408;2022-10-28T12:26:38;101188.31;;;21.71;60.66
21290;BME280;10804;48.988;2.408;2022-10-28T12:29:28;101197.81;;;21.75;60.59
21290;BME280;10804;48.988;2.408;2022-10-28T12:32:20;101206.13;;;21.83;60.44
21290;BME280;10804;48.988;2.408;2022-10-28T12:35:14;101211.81;;;21.91;60.44
21290;BME280;10804;48.988;2.408;2022-10-28T12:38:07;101203.53;;;21.96;60.27
21290;BME280;10804;48.988;2.408;2022-10-28T12:41:01;101215.56;;;22.01;60.46
21290;BME280;10804;48.988;2.408;2022-10-28T12:43:54;101204.53;;;22.07;60.30
21290;BME280;10804;48.988;2.408;2022-10-28T12:46:49;101209.44;;;22.13;60.10
21290;BME280;10804;48.988;2.408;2022-10-28T12:49:49;101217.00;;;22.19;60.20
21290;BME280;10804;48.988;2.408;2022-10-28T12:52:40;101212.25;;;22.24;59.86
21290;BME280;10804;48.988;2.408;2022-10-28T12:55:36;101199.53;;;22.29;59.83
21290;BME280;10804;48.988;2.408;2022-10-28T12:58:26;101198.25;;;22.35;59.81
21290;BME280;10804;48.988;2.408;2022-10-28T13:01:17;101197.84;;;22.41;59.57
21290;BME280;10804;48.988;2.408;2022-10-28T13:04:04;101200.22;;;22.45;59.24
21290;BME280;10804;48.988;2.408;2022-10-28T13:07:12;101205.13;;;22.51;59.38
21290;BME280;10804;48.988;2.408;2022-10-28T13:10:14;101196.84;;;22.56;59.18
21290;BME280;10804;48.988;2.408;2022-10-28T13:13:23;101202.59;;;22.62;59.31
21290;BME280;10804;48.988;2.408;2022-10-28T13:16:39;101209.41;;;22.66;59.39
21290;BME280;10804;48.988;2.408;2022-10-28T13:19:50;101212.63;;;22.71;59.23
21290;BME280;10804;48.988;2.408;2022-10-28T13:22:52;101208.81;;;22.75;58.96
21290;BME280;10804;48.988;2.408;2022-10-28T13:25:52;101215.59;;;22.79;58.76
21290;BME280;10804;48.988;2.408;2022-10-28T13:28:44;101210.91;;;22.83;58.64
21290;BME280;10804;48.988;2.408;2022-10-28T13:31:37;101208.16;;;22.84;58.80
21290;BME280;10804;48.988;2.408;2022-10-28T13:34:30;101201.78;;;22.87;58.62
21290;BME280;10804;48.988;2.408;2022-10-28T13:37:19;101204.22;;;22.90;58.75
21290;BME280;10804;48.988;2.408;2022-10-28T13:40:19;101193.50;;;22.91;58.73
21290;BME280;10804;48.988;2.408;2022-10-28T13:43:16;101189.88;;;22.92;58.38
21290;BME280;10804;48.988;2.408;2022-10-28T13:46:02;101203.91;;;22.94;58.29
21290;BME280;10804;48.988;2.408;2022-10-28T13:48:49;101206.56;;;22.94;58.30
21290;BME280;10804;48.988;2.408;2022-10-28T13:51:45;101205.59;;;22.95;58.48
21290;BME280;10804;48.988;2.408;2022-10-28T13:54:32;101208.16;;;22.97;58.38
21290;BME280;10804;48.988;2.408;2022-10-28T13:57:38;101223.16;;;22.98;58.39
21290;BME280;10804;48.988;2.408;2022-10-28T14:00:36;101212.53;;;22.98;58.30
21290;BME280;10804;48.988;2.408;2022-10-28T14:03:23;101208.06;;;22.98;58.17
21290;BME280;10804;48.988;2.408;2022-10-28T14:06:29;101212.63;;;22.96;58.36
21290;BME280;10804;48.988;2.408;2022-10-28T14:09:20;101210.81;;;22.97;58.28
21290;BME280;10804;48.988;2.408;2022-10-28T14:12:21;101218.81;;;22.97;58.08
21290;BME280;10804;48.988;2.408;2022-10-28T14:15:19;101229.56;;;22.95;58.61
21290;BME280;10804;48.988;2.408;2022-10-28T14:18:20;101214.31;;;22.97;58.39
21290;BME280;10804;48.988;2.408;2022-10-28T14:21:08;101209.88;;;22.98;58.23
21290;BME280;10804;48.988;2.408;2022-10-28T14:24:09;101212.63;;;22.96;58.42
21290;BME280;10804;48.988;2.408;2022-10-28T14:27:28;101201.16;;;22.96;58.43
21290;BME280;10804;48.988;2.408;2022-10-28T14:30:23;101205.59;;;22.95;58.48
21290;BME280;10804;48.988;2.408;2022-10-28T14:33:19;101216.25;;;22.95;58.62
21290;BME280;10804;48.988;2.408;2022-10-28T14:36:16;101218.91;;;22.95;58.34
21290;BME280;10804;48.988;2.408;2022-10-28T14:39:26;101219.88;;;22.94;58.62
21290;BME280;10804;48.988;2.408;2022-10-28T14:42:33;101217.22;;;22.94;58.48
21290;BME280;10804;48.988;2.408;2022-10-28T14:45:37;101211.06;;;22.94;58.59
21290;BME280;10804;48.988;2.408;2022-10-28T14:48:42;101214.56;;;22.94;58.65
21290;BME280;10804;48.988;2.408;2022-10-28T14:51:39;101205.84;;;22.92;58.45
21290;BME280;10804;48.988;2.408;2022-10-28T14:54:33;101210.09;;;22.95;58.37
21290;BME280;10804;48.988;2.408;2022-10-28T14:57:26;101217.22;;;22.94;58.40
21290;BME280;10804;48.988;2.408;2022-10-28T15:00:17;101210.94;;;22.95;58.28